createdAt,value
2019-03-01T00:23:22.844Z,10.1
2019-03-01T00:40:02.145Z,10.1
2019-03-01T00:56:40.403Z,10.1
2019-03-01T01:13:19.120Z,10.1
2019-03-01T01:29:57.957Z,10.1
2019-03-01T01:46:36.613Z,10.1
2019-03-01T02:03:15.467Z,9.8
2019-03-01T02:19:53.924Z,9.8
2019-03-01T02:36:32.323Z,9.4
2019-03-01T02:53:10.670Z,9.4
2019-03-01T03:09:48.941Z,9.4
2019-03-01T03:26:27.225Z,9.4
2019-03-01T03:43:05.621Z,9.4
2019-03-01T03:59:44.067Z,9.4
2019-03-01T04:16:22.505Z,9.4
2019-03-01T04:33:00.981Z,9.4
2019-03-01T04:49:39.465Z,9.4
2019-03-01T05:06:18.068Z,9.4
2019-03-01T05:22:56.273Z,9.4
2019-03-01T05:39:34.649Z,9.4
2019-03-01T05:56:12.993Z,9.4
2019-03-01T06:12:51.413Z,9.4
2019-03-01T06:29:29.878Z,9.4
2019-03-01T06:46:08.181Z,9.4
2019-03-01T07:02:46.573Z,9.4
2019-03-01T07:19:25.190Z,9.8
2019-03-01T07:36:03.797Z,9.8
2019-03-01T08:09:20.885Z,9.8
2019-03-01T08:25:59.890Z,9.8
2019-03-01T08:42:38.027Z,9.8
2019-03-01T08:59:20.140Z,9.8
2019-03-01T09:15:55.354Z,9.8
2019-03-01T09:32:34.879Z,10.1
2019-03-01T09:40:54.564Z,10.7
2019-03-01T09:57:33.286Z,10.7
2019-03-01T10:14:13.047Z,10.7
2019-03-01T10:24:12.756Z,10.1
2019-03-01T10:30:52.322Z,9.4
2019-03-01T10:37:31.711Z,8.8
2019-03-01T10:54:09.785Z,8.5
2019-03-01T11:10:47.581Z,8.2
2019-03-01T11:27:25.109Z,7.8
2019-03-01T11:44:02.228Z,7.5
2019-03-01T12:00:39.381Z,7.5
2019-03-01T12:17:16.363Z,7.5
2019-03-01T12:33:53.495Z,7.2
2019-03-01T12:50:30.348Z,7.2
2019-03-01T13:07:07.293Z,7.2
2019-03-01T13:23:45.518Z,7.2
2019-03-01T13:40:24.482Z,7.2
2019-03-01T13:56:58.120Z,7.5
2019-03-01T14:13:35.153Z,7.2
2019-03-01T14:30:11.858Z,7.2
2019-03-01T15:03:25.728Z,6.9
2019-03-01T15:20:03.409Z,6.9
2019-03-01T15:36:39.241Z,6.9
2019-03-01T15:53:24.962Z,6.6
2019-03-01T16:09:51.927Z,6.6
2019-03-01T16:26:30.023Z,6.6
2019-03-01T16:43:05.165Z,6.6
2019-03-01T16:59:42.789Z,6.6
2019-03-01T17:16:20.468Z,6.6
2019-03-01T17:32:54.209Z,6.6
2019-03-01T17:49:33.077Z,6.6
2019-03-01T18:06:07.112Z,6.6
2019-03-01T18:22:43.590Z,6.6
2019-03-01T18:39:20.400Z,6.6
2019-03-01T18:55:56.481Z,6.2
2019-03-01T19:12:32.975Z,6.2
2019-03-01T19:29:09.466Z,6.2
2019-03-01T19:45:45.722Z,6.2
2019-03-01T20:02:21.729Z,6.2
2019-03-01T20:18:57.738Z,6.2
2019-03-01T20:35:33.856Z,6.2
2019-03-01T20:52:09.784Z,6.2
2019-03-01T21:08:45.389Z,6.2
2019-03-01T21:25:21.470Z,6.2
2019-03-01T21:41:57.300Z,5.9
2019-03-01T21:58:33.020Z,5.9
2019-03-01T22:15:08.674Z,5.9
2019-03-01T22:31:44.629Z,5.9
2019-03-01T22:48:20.079Z,5.9
2019-03-01T23:04:55.735Z,5.9
2019-03-01T23:21:32.617Z,5.6
2019-03-01T23:38:07.154Z,5.6
2019-03-01T23:54:44.303Z,5.6
